createdAt,value
2022-12-27T00:00:07.919Z,92.99
2022-12-27T00:02:40.661Z,93.30
2022-12-27T00:05:08.983Z,93.20
2022-12-27T00:07:35.725Z,93.52
2022-12-27T00:10:02.237Z,93.51
2022-12-27T00:12:29.663Z,93.38
2022-12-27T00:14:56.044Z,93.68
2022-12-27T00:17:22.471Z,93.67
2022-12-27T00:19:48.855Z,94.42
2022-12-27T00:22:15.224Z,94.26
2022-12-27T00:24:41.812Z,94.28
2022-12-27T00:27:08.218Z,94.30
2022-12-27T00:29:34.717Z,94.84
2022-12-27T00:32:01.360Z,95.31
2022-12-27T00:34:27.882Z,95.15
2022-12-27T00:36:54.313Z,95.47
2022-12-27T00:39:20.681Z,95.44
2022-12-27T00:41:47.135Z,95.10
2022-12-27T00:44:13.625Z,95.68
2022-12-27T00:46:40.008Z,95.74
2022-12-27T00:49:06.863Z,95.92
2022-12-27T00:51:33.274Z,95.89
2022-12-27T00:54:00.408Z,96.40
2022-12-27T00:56:29.325Z,96.76
2022-12-27T00:58:58.233Z,96.34
2022-12-27T01:01:28.026Z,96.44
2022-12-27T01:03:55.926Z,96.62
2022-12-27T01:06:25.770Z,96.59
2022-12-27T01:08:52.283Z,97.04
2022-12-27T01:11:19.112Z,97.10
2022-12-27T01:13:46.324Z,96.92
2022-12-27T01:16:20.169Z,96.75
2022-12-27T01:18:47.460Z,97.01
2022-12-27T01:21:17.662Z,97.36
2022-12-27T01:23:45.303Z,97.47
2022-12-27T01:26:14.969Z,97.66
2022-12-27T01:28:41.664Z,98.00
2022-12-27T01:31:13.457Z,98.07
2022-12-27T01:33:40.516Z,98.25
2022-12-27T01:36:11.826Z,98.15
2022-12-27T01:38:38.409Z,98.05
2022-12-27T01:41:25.642Z,98.25
2022-12-27T01:43:53.053Z,98.75
2022-12-27T01:46:19.457Z,98.42
2022-12-27T01:48:46.550Z,98.28
2022-12-27T01:51:14.015Z,98.54
2022-12-27T01:53:43.999Z,99.44
2022-12-27T01:56:31.268Z,99.27
2022-12-27T01:59:02.396Z,99.56
2022-12-27T02:01:40.028Z,99.62
2022-12-27T02:04:10.423Z,100.00
2022-12-27T02:06:39.253Z,99.85
2022-12-27T02:09:29.865Z,100.00
2022-12-27T02:11:57.899Z,100.00
2022-12-27T02:14:34.255Z,100.00
2022-12-27T02:17:04.590Z,100.00
2022-12-27T02:19:40.137Z,100.00
2022-12-27T02:22:31.305Z,100.00
2022-12-27T02:25:32.965Z,100.00
2022-12-27T02:28:11.227Z,100.00
2022-12-27T02:30:38.345Z,100.00
2022-12-27T02:33:13.751Z,100.00
2022-12-27T02:35:44.566Z,100.00
2022-12-27T02:38:16.001Z,100.00
2022-12-27T02:41:04.103Z,100.00
2022-12-27T02:43:50.402Z,100.00
2022-12-27T02:46:44.059Z,100.00
2022-12-27T02:49:50.480Z,100.00
2022-12-27T02:53:07.978Z,100.00
2022-12-27T02:56:12.055Z,100.00
2022-12-27T02:59:09.685Z,100.00
2022-12-27T03:02:05.653Z,100.00
2022-12-27T03:04:54.064Z,100.00
2022-12-27T03:07:47.457Z,100.00
2022-12-27T03:10:45.246Z,100.00
2022-12-27T03:13:35.149Z,100.00
2022-12-27T03:16:18.281Z,100.00
2022-12-27T03:18:56.549Z,100.00
2022-12-27T03:21:55.854Z,100.00
2022-12-27T03:24:46.817Z,100.00
2022-12-27T03:27:19.919Z,100.00
2022-12-27T03:30:11.346Z,100.00
2022-12-27T03:33:09.074Z,100.00
2022-12-27T03:35:43.641Z,100.00
2022-12-27T03:38:13.762Z,100.00
2022-12-27T03:41:16.222Z,100.00
2022-12-27T03:43:42.637Z,100.00
2022-12-27T03:46:38.277Z,100.00
2022-12-27T03:49:28.154Z,100.00
2022-12-27T03:52:21.027Z,100.00
2022-12-27T03:54:50.813Z,100.00
2022-12-27T03:57:20.796Z,100.00
2022-12-27T03:59:47.405Z,100.00
2022-12-27T04:02:14.167Z,100.00
2022-12-27T04:04:40.957Z,100.00
2022-12-27T04:07:07.671Z,100.00
2022-12-27T04:09:52.503Z,100.00
2022-12-27T04:12:37.302Z,100.00
2022-12-27T04:15:22.608Z,100.00
2022-12-27T04:18:08.090Z,100.00
2022-12-27T04:20:53.141Z,100.00
2022-12-27T04:23:38.064Z,100.00
2022-12-27T04:26:23.379Z,100.00
2022-12-27T04:29:08.864Z,100.00
2022-12-27T04:31:53.656Z,100.00
2022-12-27T04:34:38.586Z,100.00
2022-12-27T04:37:05.063Z,100.00
2022-12-27T04:39:32.320Z,100.00
2022-12-27T04:42:17.340Z,100.00
2022-12-27T04:45:02.243Z,100.00
2022-12-27T04:47:48.219Z,100.00
2022-12-27T04:51:13.465Z,100.00
2022-12-27T04:53:58.363Z,100.00
2022-12-27T04:56:24.910Z,100.00
2022-12-27T04:59:10.233Z,100.00
2022-12-27T05:01:55.630Z,100.00
2022-12-27T05:04:22.914Z,100.00
2022-12-27T05:06:49.661Z,100.00
2022-12-27T05:09:34.689Z,100.00
2022-12-27T05:12:19.473Z,100.00
2022-12-27T05:14:46.904Z,100.00
2022-12-27T05:17:13.515Z,100.00
2022-12-27T05:19:40.016Z,100.00
2022-12-27T05:22:25.100Z,100.00
2022-12-27T05:25:09.968Z,100.00
2022-12-27T05:27:37.092Z,100.00
2022-12-27T05:30:04.175Z,100.00
2022-12-27T05:32:30.568Z,100.00
2022-12-27T05:34:56.961Z,100.00
2022-12-27T05:37:23.334Z,100.00
2022-12-27T05:39:49.709Z,100.00
2022-12-27T05:42:16.665Z,100.00
2022-12-27T05:44:43.060Z,100.00
2022-12-27T05:47:09.734Z,100.00
2022-12-27T05:49:36.153Z,100.00
2022-12-27T05:52:02.678Z,100.00
2022-12-27T05:54:29.199Z,100.00
2022-12-27T05:56:55.627Z,100.00
2022-12-27T05:59:22.155Z,100.00
2022-12-27T06:01:49.102Z,100.00
2022-12-27T06:04:15.764Z,100.00
2022-12-27T06:06:42.241Z,100.00
2022-12-27T06:09:08.856Z,100.00
2022-12-27T06:11:35.308Z,100.00
2022-12-27T06:14:01.664Z,100.00
2022-12-27T06:16:28.070Z,100.00
2022-12-27T06:18:55.034Z,100.00
2022-12-27T06:21:22.089Z,100.00
2022-12-27T06:23:49.005Z,100.00
2022-12-27T06:26:17.133Z,100.00
2022-12-27T06:28:43.735Z,100.00
2022-12-27T06:31:10.646Z,100.00
2022-12-27T06:33:37.268Z,100.00
2022-12-27T06:36:12.677Z,100.00
2022-12-27T06:38:39.517Z,100.00
2022-12-27T06:41:08.328Z,100.00
2022-12-27T06:43:35.392Z,100.00
2022-12-27T06:46:04.748Z,100.00
2022-12-27T06:48:31.690Z,100.00
2022-12-27T06:50:58.395Z,100.00
2022-12-27T06:53:25.065Z,100.00
2022-12-27T06:55:51.448Z,100.00
2022-12-27T06:58:17.813Z,100.00
2022-12-27T07:00:44.302Z,100.00
2022-12-27T07:03:10.728Z,100.00
2022-12-27T07:05:38.030Z,100.00
2022-12-27T07:08:05.263Z,100.00
2022-12-27T07:10:31.734Z,100.00
2022-12-27T07:12:58.282Z,100.00
2022-12-27T07:15:24.707Z,100.00
2022-12-27T07:17:51.196Z,100.00
2022-12-27T07:20:17.600Z,100.00
2022-12-27T07:22:44.335Z,100.00
2022-12-27T07:25:10.746Z,100.00
2022-12-27T07:27:37.676Z,100.00
2022-12-27T07:30:06.173Z,100.00
2022-12-27T07:32:32.587Z,100.00
2022-12-27T07:34:59.755Z,100.00
2022-12-27T07:37:26.150Z,100.00
2022-12-27T07:39:52.583Z,100.00
2022-12-27T07:42:18.968Z,100.00
2022-12-27T07:44:45.757Z,100.00
2022-12-27T07:47:12.170Z,100.00
2022-12-27T07:49:38.636Z,100.00
2022-12-27T07:52:05.072Z,100.00
2022-12-27T07:54:31.694Z,100.00
2022-12-27T07:56:58.085Z,100.00
2022-12-27T07:59:24.747Z,100.00
2022-12-27T08:02:06.301Z,100.00
2022-12-27T08:04:35.736Z,100.00
2022-12-27T08:07:11.690Z,100.00
2022-12-27T08:09:40.691Z,100.00
2022-12-27T08:12:08.211Z,100.00
2022-12-27T08:14:35.004Z,100.00
2022-12-27T08:17:05.881Z,100.00
2022-12-27T08:19:32.401Z,100.00
2022-12-27T08:21:58.897Z,100.00
2022-12-27T08:24:25.456Z,100.00
2022-12-27T08:26:51.849Z,100.00
2022-12-27T08:29:18.595Z,100.00
2022-12-27T08:31:45.061Z,100.00
2022-12-27T08:34:11.747Z,100.00
2022-12-27T08:39:24.636Z,100.00
2022-12-27T08:41:53.909Z,100.00
2022-12-27T08:44:20.371Z,100.00
2022-12-27T08:46:47.218Z,100.00
2022-12-27T08:49:13.626Z,100.00
2022-12-27T08:51:41.395Z,100.00
2022-12-27T08:54:08.918Z,100.00
2022-12-27T08:56:35.676Z,100.00
2022-12-27T08:59:02.632Z,100.00
2022-12-27T09:01:29.157Z,100.00
2022-12-27T09:03:55.893Z,100.00
2022-12-27T09:06:23.882Z,100.00
2022-12-27T09:08:54.437Z,100.00
2022-12-27T09:11:23.770Z,100.00
2022-12-27T09:13:50.681Z,100.00
2022-12-27T09:16:20.029Z,100.00
2022-12-27T09:18:49.570Z,100.00
2022-12-27T09:21:17.512Z,100.00
2022-12-27T09:23:44.384Z,100.00
2022-12-27T09:26:12.130Z,100.00
2022-12-27T09:28:39.100Z,100.00
2022-12-27T09:31:06.446Z,100.00
2022-12-27T09:33:33.047Z,100.00
2022-12-27T09:36:08.136Z,100.00
2022-12-27T09:38:36.072Z,100.00
2022-12-27T09:41:07.058Z,100.00
2022-12-27T09:44:00.074Z,100.00
2022-12-27T09:46:48.493Z,100.00
2022-12-27T09:49:20.329Z,100.00
2022-12-27T09:51:57.981Z,100.00
2022-12-27T09:54:42.727Z,100.00
2022-12-27T09:57:20.652Z,100.00
2022-12-27T09:59:50.035Z,100.00
2022-12-27T10:02:23.974Z,100.00
2022-12-27T10:05:19.081Z,100.00
2022-12-27T10:08:01.623Z,100.00
2022-12-27T10:10:38.223Z,100.00
2022-12-27T10:13:23.064Z,100.00
2022-12-27T10:16:11.390Z,100.00
2022-12-27T10:19:04.137Z,100.00
2022-12-27T10:21:37.275Z,100.00
2022-12-27T10:24:20.667Z,100.00
2022-12-27T10:26:47.116Z,100.00
2022-12-27T10:29:32.818Z,100.00
2022-12-27T10:31:59.294Z,100.00
2022-12-27T10:34:26.165Z,100.00
2022-12-27T10:36:53.066Z,100.00
2022-12-27T10:39:32.274Z,100.00
2022-12-27T10:42:15.528Z,100.00
2022-12-27T10:44:41.977Z,100.00
2022-12-27T10:47:08.477Z,100.00
2022-12-27T10:49:36.185Z,100.00
2022-12-27T10:52:08.793Z,100.00
2022-12-27T10:54:48.700Z,100.00
2022-12-27T10:57:25.743Z,100.00
2022-12-27T11:00:22.450Z,100.00
2022-12-27T11:02:58.449Z,99.95
2022-12-27T11:05:31.325Z,100.00
2022-12-27T11:07:57.966Z,100.00
2022-12-27T11:10:27.802Z,99.18
2022-12-27T11:12:59.460Z,98.43
2022-12-27T11:15:29.537Z,98.66
2022-12-27T11:18:00.302Z,98.64
2022-12-27T11:20:44.660Z,98.06
2022-12-27T11:23:17.732Z,96.96
2022-12-27T11:25:54.828Z,96.13
2022-12-27T11:28:35.153Z,95.49
2022-12-27T11:31:05.937Z,95.06
2022-12-27T11:33:52.002Z,93.93
2022-12-27T11:36:28.725Z,93.14
2022-12-27T11:38:55.735Z,93.00
2022-12-27T11:41:48.903Z,93.77
2022-12-27T11:44:26.803Z,93.58
2022-12-27T11:46:59.493Z,93.88
2022-12-27T11:49:34.684Z,93.62
2022-12-27T11:52:43.245Z,91.07
2022-12-27T11:55:47.111Z,89.80
2022-12-27T11:58:38.497Z,89.20
2022-12-27T12:01:33.447Z,88.42
2022-12-27T12:04:16.483Z,87.98
2022-12-27T12:06:59.035Z,88.43
2022-12-27T12:09:37.446Z,88.21
2022-12-27T12:12:27.883Z,88.81
2022-12-27T12:15:22.666Z,88.56
2022-12-27T12:18:14.248Z,88.34
2022-12-27T12:21:24.520Z,88.50
2022-12-27T12:24:14.869Z,89.44
2022-12-27T12:27:10.428Z,89.38
2022-12-27T12:29:58.730Z,89.65
2022-12-27T12:32:35.863Z,89.13
2022-12-27T12:35:22.889Z,89.18
2022-12-27T12:38:04.391Z,89.49
2022-12-27T12:40:54.041Z,90.16
2022-12-27T12:43:33.228Z,90.47
2022-12-27T12:46:20.691Z,90.94
2022-12-27T12:48:47.036Z,91.48
2022-12-27T12:51:28.326Z,91.00
2022-12-27T12:54:21.154Z,90.66
2022-12-27T12:57:02.957Z,91.24
2022-12-27T12:59:57.597Z,91.62
2022-12-27T13:02:58.544Z,91.94
2022-12-27T13:05:46.203Z,91.33
2022-12-27T13:08:35.331Z,91.61
2022-12-27T13:11:27.652Z,91.12
2022-12-27T13:14:19.704Z,90.90
2022-12-27T13:16:58.188Z,91.47
2022-12-27T13:19:34.927Z,91.45
2022-12-27T13:22:12.441Z,91.55
2022-12-27T13:25:06.006Z,91.00
2022-12-27T13:27:47.888Z,91.23
2022-12-27T13:30:24.133Z,91.32
2022-12-27T13:33:03.126Z,91.05
2022-12-27T13:35:48.559Z,90.91
2022-12-27T13:38:49.372Z,91.29
2022-12-27T13:41:31.200Z,90.80
2022-12-27T13:44:00.391Z,91.32
2022-12-27T13:46:38.144Z,91.81
2022-12-27T13:49:36.452Z,91.89
2022-12-27T13:52:15.359Z,91.09
2022-12-27T13:55:12.901Z,91.40
2022-12-27T13:58:00.892Z,91.56
2022-12-27T14:00:41.027Z,91.91
2022-12-27T14:03:26.253Z,91.77
2022-12-27T14:06:14.411Z,92.30
2022-12-27T14:08:50.340Z,92.43
2022-12-27T14:11:37.134Z,92.48
2022-12-27T14:14:05.451Z,92.53
2022-12-27T14:16:35.864Z,92.49
2022-12-27T14:19:29.771Z,92.27
2022-12-27T14:22:10.860Z,92.76
2022-12-27T14:25:05.114Z,92.66
2022-12-27T14:28:21.930Z,92.65
2022-12-27T14:31:25.926Z,93.25
2022-12-27T14:34:11.118Z,93.28
2022-12-27T14:37:12.334Z,93.50
2022-12-27T14:39:56.887Z,93.39
2022-12-27T14:42:55.087Z,93.65
2022-12-27T14:45:56.970Z,93.09
2022-12-27T14:48:45.385Z,93.74
2022-12-27T14:52:00.705Z,94.01
2022-12-27T14:55:05.626Z,94.01
2022-12-27T14:58:07.659Z,94.39
2022-12-27T15:01:11.140Z,94.60
2022-12-27T15:04:03.943Z,94.56
2022-12-27T15:06:53.328Z,94.59
2022-12-27T15:09:33.587Z,93.78
2022-12-27T15:12:21.315Z,93.93
2022-12-27T15:14:55.043Z,94.19
2022-12-27T15:17:39.749Z,94.16
2022-12-27T15:20:24.874Z,94.30
2022-12-27T15:23:24.772Z,94.30
2022-12-27T15:26:00.862Z,94.41
2022-12-27T15:28:37.498Z,94.53
2022-12-27T15:31:26.533Z,94.37
2022-12-27T15:34:07.207Z,94.79
2022-12-27T15:36:41.628Z,94.98
2022-12-27T15:39:33.566Z,94.81
2022-12-27T15:42:33.043Z,94.70
2022-12-27T15:45:28.015Z,94.84
2022-12-27T15:48:03.526Z,94.25
2022-12-27T15:50:44.333Z,94.08
2022-12-27T15:53:35.597Z,93.92
2022-12-27T15:56:26.423Z,93.96
2022-12-27T15:59:34.892Z,94.01
2022-12-27T16:02:24.739Z,93.81
2022-12-27T16:05:02.571Z,93.71
2022-12-27T16:07:44.836Z,93.63
2022-12-27T16:10:30.117Z,93.95
2022-12-27T16:13:08.810Z,93.27
2022-12-27T16:15:44.904Z,92.94
2022-12-27T16:18:50.506Z,93.34
2022-12-27T16:21:36.635Z,93.85
2022-12-27T16:24:20.114Z,94.17
2022-12-27T16:26:52.938Z,94.01
2022-12-27T16:29:22.943Z,93.71
2022-12-27T16:31:51.441Z,93.34
2022-12-27T16:34:24.120Z,93.17
2022-12-27T16:36:53.428Z,93.21
2022-12-27T16:39:48.842Z,93.37
2022-12-27T16:42:18.757Z,92.41
2022-12-27T16:44:54.941Z,91.58
2022-12-27T16:47:44.414Z,91.71
2022-12-27T16:50:29.660Z,91.32
2022-12-27T16:53:05.140Z,91.93
2022-12-27T16:55:52.865Z,92.04
2022-12-27T16:58:32.267Z,91.60
2022-12-27T17:01:01.090Z,91.43
2022-12-27T17:03:36.786Z,91.81
2022-12-27T17:06:32.349Z,91.23
2022-12-27T17:09:08.882Z,91.50
2022-12-27T17:11:47.465Z,91.32
2022-12-27T17:14:31.571Z,91.08
2022-12-27T17:17:14.465Z,91.12
2022-12-27T17:20:01.078Z,90.42
2022-12-27T17:22:34.171Z,90.22
2022-12-27T17:25:02.321Z,90.09
2022-12-27T17:27:41.237Z,90.09
2022-12-27T17:30:32.183Z,89.69
2022-12-27T17:33:39.789Z,89.90
2022-12-27T17:36:40.262Z,89.60
2022-12-27T17:39:42.122Z,89.68
2022-12-27T17:42:55.144Z,89.81
2022-12-27T17:45:43.232Z,90.03
2022-12-27T17:48:21.740Z,90.17
2022-12-27T17:50:48.956Z,90.68
2022-12-27T17:53:37.736Z,90.45
2022-12-27T17:56:28.886Z,90.67
2022-12-27T17:59:25.657Z,90.77
2022-12-27T18:01:55.522Z,90.67
2022-12-27T18:04:25.687Z,90.67
2022-12-27T18:06:57.123Z,90.78
2022-12-27T18:09:34.275Z,90.97
2022-12-27T18:12:04.688Z,90.93
2022-12-27T18:14:33.784Z,91.07
2022-12-27T18:17:00.608Z,90.78
2022-12-27T18:19:31.389Z,91.21
2022-12-27T18:22:02.474Z,91.32
2022-12-27T18:24:33.395Z,91.55
2022-12-27T18:27:15.858Z,91.46
2022-12-27T18:29:42.840Z,91.69
2022-12-27T18:32:14.343Z,91.96
2022-12-27T18:34:54.419Z,91.47
2022-12-27T18:37:24.904Z,92.09
2022-12-27T18:39:54.884Z,92.38
2022-12-27T18:42:31.029Z,92.42
2022-12-27T18:45:02.423Z,92.13
2022-12-27T18:47:28.988Z,92.32
2022-12-27T18:49:59.529Z,92.34
2022-12-27T18:52:32.674Z,92.78
2022-12-27T18:55:08.176Z,92.90
2022-12-27T18:57:36.282Z,93.01
2022-12-27T19:00:17.708Z,92.86
2022-12-27T19:02:44.966Z,93.01
2022-12-27T19:05:25.197Z,91.94
2022-12-27T19:08:00.700Z,92.43
2022-12-27T19:10:29.484Z,92.18
2022-12-27T19:12:57.221Z,92.27
2022-12-27T19:15:28.491Z,92.14
2022-12-27T19:17:59.156Z,91.96
2022-12-27T19:20:29.071Z,91.60
2022-12-27T19:22:57.185Z,91.22
2022-12-27T19:25:33.283Z,91.13
2022-12-27T19:28:09.980Z,90.92
2022-12-27T19:30:41.595Z,90.31
2022-12-27T19:33:29.612Z,90.30
2022-12-27T19:35:56.773Z,90.59
2022-12-27T19:38:26.615Z,90.43
2022-12-27T19:41:02.841Z,90.34
2022-12-27T19:43:35.949Z,90.58
2022-12-27T19:46:02.411Z,89.62
2022-12-27T19:48:28.795Z,89.48
2022-12-27T19:50:55.431Z,89.56
2022-12-27T19:53:30.788Z,89.56
2022-12-27T19:55:58.212Z,89.29
2022-12-27T19:58:26.613Z,89.16
2022-12-27T20:00:53.104Z,89.04
2022-12-27T20:03:19.998Z,89.26
2022-12-27T20:06:14.193Z,88.92
2022-12-27T20:08:33.449Z,88.19
2022-12-27T20:11:01.354Z,88.22
2022-12-27T20:13:27.927Z,88.05
2022-12-27T20:15:56.423Z,87.71
2022-12-27T20:18:23.728Z,87.64
2022-12-27T20:20:51.343Z,87.74
2022-12-27T20:23:19.262Z,87.56
2022-12-27T20:25:48.174Z,86.84
2022-12-27T20:28:15.793Z,87.14
2022-12-27T20:30:44.158Z,87.29
2022-12-27T20:33:11.196Z,87.23
2022-12-27T20:35:37.884Z,87.45
2022-12-27T20:38:05.273Z,87.93
2022-12-27T20:40:31.750Z,87.59
2022-12-27T20:42:58.997Z,87.38
2022-12-27T20:45:25.465Z,87.39
2022-12-27T20:47:51.893Z,87.34
2022-12-27T20:50:18.811Z,87.50
2022-12-27T20:52:45.184Z,87.35
2022-12-27T20:55:12.669Z,87.65
2022-12-27T20:57:39.323Z,87.89
2022-12-27T21:00:08.300Z,88.00
2022-12-27T21:02:35.230Z,87.91
2022-12-27T21:05:01.796Z,87.94
2022-12-27T21:07:28.265Z,87.98
2022-12-27T21:09:55.256Z,88.49
2022-12-27T21:12:21.636Z,87.97
2022-12-27T21:14:49.863Z,87.30
2022-12-27T21:17:17.202Z,87.61
2022-12-27T21:19:43.810Z,87.41
2022-12-27T21:22:10.282Z,87.36
2022-12-27T21:24:36.757Z,87.58
2022-12-27T21:27:03.218Z,87.54
2022-12-27T21:29:29.618Z,87.82
2022-12-27T21:31:56.056Z,87.31
2022-12-27T21:34:22.760Z,87.04
2022-12-27T21:36:54.345Z,86.97
2022-12-27T21:39:21.439Z,86.57
2022-12-27T21:41:47.906Z,86.55
2022-12-27T21:44:14.440Z,86.58
2022-12-27T21:46:42.213Z,86.68
2022-12-27T21:49:12.360Z,86.55
2022-12-27T21:51:40.488Z,86.53
2022-12-27T21:54:07.571Z,86.42
2022-12-27T21:56:34.085Z,86.25
2022-12-27T21:59:02.916Z,86.35
2022-12-27T22:01:31.498Z,86.21
2022-12-27T22:04:17.776Z,85.79
2022-12-27T22:06:47.096Z,85.89
2022-12-27T22:09:14.235Z,86.10
2022-12-27T22:11:40.659Z,85.79
2022-12-27T22:14:07.138Z,86.08
2022-12-27T22:16:36.275Z,85.43
2022-12-27T22:19:05.546Z,85.24
2022-12-27T22:21:34.037Z,85.37
2022-12-27T22:24:01.854Z,85.48
2022-12-27T22:26:31.848Z,85.81
2022-12-27T22:28:58.652Z,86.13
2022-12-27T22:31:29.951Z,86.05
2022-12-27T22:33:56.515Z,86.60
2022-12-27T22:36:24.588Z,86.37
2022-12-27T22:38:53.572Z,86.81
2022-12-27T22:41:28.899Z,87.31
2022-12-27T22:44:00.657Z,87.51
2022-12-27T22:46:39.382Z,88.02
2022-12-27T22:49:15.426Z,88.26
2022-12-27T22:51:42.267Z,88.38
2022-12-27T22:54:08.640Z,88.72
2022-12-27T22:56:37.709Z,89.00
2022-12-27T22:59:16.301Z,89.27
2022-12-27T23:01:43.788Z,89.18
2022-12-27T23:04:12.382Z,89.49
2022-12-27T23:06:40.034Z,89.25
2022-12-27T23:09:07.500Z,89.51
2022-12-27T23:11:37.737Z,89.60
2022-12-27T23:14:09.198Z,89.91
2022-12-27T23:16:37.990Z,90.09
2022-12-27T23:19:05.349Z,90.45
2022-12-27T23:21:31.794Z,90.90
2022-12-27T23:23:58.307Z,91.06
2022-12-27T23:26:24.716Z,91.14
2022-12-27T23:28:53.154Z,91.04
2022-12-27T23:31:22.195Z,90.96
2022-12-27T23:33:49.174Z,91.43
2022-12-27T23:36:15.553Z,91.59
2022-12-27T23:38:42.899Z,91.39
2022-12-27T23:41:14.746Z,91.32
2022-12-27T23:43:57.196Z,91.58
2022-12-27T23:46:29.981Z,92.08
2022-12-27T23:48:58.110Z,92.08
2022-12-27T23:51:25.743Z,92.27
2022-12-27T23:53:52.694Z,92.17
2022-12-27T23:56:22.006Z,92.20
2022-12-27T23:58:50.061Z,92.02
